Lake Secor, New York
Current Conditions -  °F | °C
As of 2:53 PM on Friday 21 Nov 2014 (Local Time) from KDXR Reporting Station
Clear Clear  
Wind Chill: 26°   Ceiling: Unl
Heat Index: 33°   Visibility: 10mi
Dew Point:   Wind: 8mph
Humidity: 32%   Direction: 290°WNW
Pressure: 30.29"   Gusts: 22mph
Location:  41.3759°N, 73.7482°W
Report Text: KDXR 211953Z 29007G19KT 270V340 10SM CLR 01/M14 A3029 RMK AO2 SLP262 T00061144
Loading
Personal Weather Stations






























Interactive Weather Map New forecast layout! Learn more

10-Day Weather Forecast

Advertisements
Track Severe Weather on mobile